createdAt,value
2022-12-01T00:01:29.729Z,100882.47
2022-12-01T00:03:57.857Z,100884.63
2022-12-01T00:06:26.003Z,100890.59
2022-12-01T00:09:18.024Z,100895.03
2022-12-01T00:11:47.827Z,100903.03
2022-12-01T00:14:16.461Z,100903.03
2022-12-01T00:16:45.022Z,100897.69
2022-12-01T00:19:13.697Z,100903.91
2022-12-01T00:21:42.050Z,100906.44
2022-12-01T00:24:12.758Z,100905.56
2022-12-01T00:26:41.293Z,100903.75
2022-12-01T00:29:09.930Z,100904.63
2022-12-01T00:31:38.138Z,100902.91
2022-12-01T00:34:10.974Z,100904.78
2022-12-01T00:36:39.961Z,100901.31
2022-12-01T00:39:08.243Z,100909.38
2022-12-01T00:41:37.826Z,100913.00
2022-12-01T00:44:06.607Z,100906.81
2022-12-01T00:46:34.915Z,100906.81
2022-12-01T00:49:03.144Z,100909.47
2022-12-01T00:51:31.428Z,100912.13
2022-12-01T00:53:59.676Z,100912.13
2022-12-01T00:56:27.782Z,100914.88
2022-12-01T00:58:57.286Z,100921.94
2022-12-01T01:01:25.536Z,100924.38
2022-12-01T01:03:54.306Z,100918.94
2022-12-01T01:06:22.547Z,100913.63
2022-12-01T01:08:50.986Z,100913.44
2022-12-01T01:11:19.120Z,100917.94
2022-12-01T01:13:47.293Z,100910.09
2022-12-01T01:16:20.086Z,100909.16
2022-12-01T01:18:49.081Z,100914.56
2022-12-01T01:21:19.247Z,100907.53
2022-12-01T01:23:47.644Z,100902.22
2022-12-01T01:26:19.659Z,100910.22
2022-12-01T01:28:48.664Z,100912.09
2022-12-01T01:31:20.550Z,100911.91
2022-12-01T01:33:49.344Z,100909.31
2022-12-01T01:36:18.229Z,100915.63
2022-12-01T01:38:46.837Z,100907.53
2022-12-01T01:41:15.232Z,100912.19
2022-12-01T01:43:46.383Z,100902.38
2022-12-01T01:46:18.199Z,100909.59
2022-12-01T01:48:50.832Z,100907.72
2022-12-01T01:51:23.577Z,100912.19
2022-12-01T01:53:54.955Z,100909.75
2022-12-01T01:56:23.693Z,100905.31
2022-12-01T01:58:54.019Z,100909.75
2022-12-01T02:01:23.537Z,100911.56
2022-12-01T02:03:54.899Z,100904.53
2022-12-01T02:06:24.882Z,100901.00
2022-12-01T02:08:53.286Z,100901.00
2022-12-01T02:11:53.334Z,100892.16
2022-12-01T02:14:42.569Z,100895.75
2022-12-01T02:17:24.066Z,100895.75
2022-12-01T02:20:21.854Z,100895.75
2022-12-01T02:23:02.955Z,100899.38
2022-12-01T02:25:42.458Z,100896.72
2022-12-01T02:28:45.523Z,100902.13
2022-12-01T02:31:18.852Z,100904.00
2022-12-01T02:33:52.574Z,100902.81
2022-12-01T02:36:29.633Z,100899.94
2022-12-01T02:39:02.678Z,100900.00
2022-12-01T02:41:38.343Z,100895.69
2022-12-01T02:44:12.196Z,100902.81
2022-12-01T02:46:45.755Z,100896.72
2022-12-01T02:49:18.052Z,100902.03
2022-12-01T02:51:47.110Z,100890.44
2022-12-01T02:54:16.685Z,100897.81
2022-12-01T02:56:46.120Z,100885.25
2022-12-01T02:59:16.547Z,100885.25
2022-12-01T03:01:57.156Z,100883.53
2022-12-01T03:04:52.561Z,100889.84
2022-12-01T03:07:41.748Z,100887.16
2022-12-01T03:10:18.011Z,100885.34
2022-12-01T03:12:58.707Z,100888.97
2022-12-01T03:15:35.869Z,100894.28
2022-12-01T03:18:12.401Z,100887.25
2022-12-01T03:20:47.351Z,100897.03
2022-12-01T03:23:19.242Z,100893.50
2022-12-01T03:25:50.580Z,100894.44
2022-12-01T03:28:22.624Z,100893.66
2022-12-01T03:30:57.096Z,100892.81
2022-12-01T03:33:30.965Z,100883.94
2022-12-01T03:36:04.390Z,100880.34
2022-12-01T03:38:36.343Z,100875.28
2022-12-01T03:41:08.681Z,100878.63
2022-12-01T03:43:42.166Z,100875.09
2022-12-01T03:46:15.132Z,100874.22
2022-12-01T03:48:45.155Z,100875.09
2022-12-01T03:51:17.242Z,100871.59
2022-12-01T03:53:53.888Z,100878.63
2022-12-01T03:56:27.366Z,100880.34
2022-12-01T03:58:58.766Z,100879.69
2022-12-01T04:01:32.717Z,100881.50
2022-12-01T04:04:07.741Z,100878.81
2022-12-01T04:06:36.128Z,100885.09
2022-12-01T04:09:04.827Z,100880.69
2022-12-01T04:11:50.517Z,100878.03
2022-12-01T04:14:18.872Z,100872.78
2022-12-01T04:16:46.946Z,100876.38
2022-12-01T04:19:16.856Z,100877.34
2022-12-01T04:21:45.082Z,100877.34
2022-12-01T04:24:13.359Z,100876.50
2022-12-01T04:26:42.202Z,100872.13
2022-12-01T04:29:13.399Z,100877.47
2022-12-01T04:31:41.706Z,100870.41
2022-12-01T04:34:11.500Z,100868.69
2022-12-01T04:36:40.939Z,100863.50
2022-12-01T04:39:09.048Z,100869.63
2022-12-01T04:41:37.217Z,100869.63
2022-12-01T04:44:05.673Z,100868.84
2022-12-01T04:46:33.995Z,100876.03
2022-12-01T04:49:02.133Z,100892.03
2022-12-01T04:51:30.159Z,100901.88
2022-12-01T04:53:59.679Z,100902.91
2022-12-01T04:56:27.706Z,100913.63
2022-12-01T04:58:56.146Z,100914.50
2022-12-01T05:01:24.232Z,100910.88
2022-12-01T05:03:52.448Z,100905.63
2022-12-01T05:06:22.552Z,100893.97
2022-12-01T05:08:51.810Z,100889.72
2022-12-01T05:11:21.595Z,100894.19
2022-12-01T05:13:50.641Z,100892.66
2022-12-01T05:16:20.650Z,100900.66
2022-12-01T05:18:50.404Z,100898.00
2022-12-01T05:21:18.253Z,100896.28
2022-12-01T05:23:46.570Z,100899.78
2022-12-01T05:26:14.641Z,100898.22
2022-12-01T05:28:44.137Z,100903.41
2022-12-01T05:31:12.404Z,100892.75
2022-12-01T05:33:40.509Z,100899.88
2022-12-01T05:36:09.294Z,100904.34
2022-12-01T05:38:37.427Z,100899.94
2022-12-01T05:41:05.730Z,100906.22
2022-12-01T05:43:33.867Z,100903.41
2022-12-01T05:46:03.829Z,100899.94
2022-12-01T05:48:32.025Z,100899.09
2022-12-01T05:51:00.270Z,100898.22
2022-12-01T05:53:28.310Z,100898.22
2022-12-01T05:55:56.666Z,100906.22
2022-12-01T05:58:24.774Z,100899.16
2022-12-01T06:00:52.910Z,100904.41
2022-12-01T06:03:22.633Z,100906.28
2022-12-01T06:05:51.097Z,100909.00
2022-12-01T06:08:19.276Z,100917.94
2022-12-01T06:10:48.566Z,100916.06
2022-12-01T06:13:17.057Z,100916.22
2022-12-01T06:15:45.264Z,100921.53
2022-12-01T06:18:13.403Z,100919.72
2022-12-01T06:20:42.824Z,100924.19
2022-12-01T06:23:10.883Z,100921.53
2022-12-01T06:25:38.936Z,100925.06
2022-12-01T06:28:07.029Z,100926.88
2022-12-01T06:30:35.208Z,100927.88
2022-12-01T06:33:03.302Z,100923.41
2022-12-01T06:35:31.524Z,100924.34
2022-12-01T06:38:01.427Z,100912.84
2022-12-01T06:40:29.663Z,100923.41
2022-12-01T06:43:00.712Z,100920.81
2022-12-01T06:45:28.935Z,100923.56
2022-12-01T06:47:57.585Z,100910.25
2022-12-01T06:50:26.237Z,100918.22
2022-12-01T06:52:59.481Z,100922.69
2022-12-01T06:55:29.065Z,100928.03
2022-12-01T06:58:00.910Z,100922.75
2022-12-01T07:00:30.383Z,100920.94
2022-12-01T07:02:59.111Z,100919.22
2022-12-01T07:05:27.414Z,100915.69
2022-12-01T07:07:59.451Z,100922.69
2022-12-01T07:10:29.492Z,100922.75
2022-12-01T07:12:58.164Z,100929.81
2022-12-01T07:15:26.247Z,100923.69
2022-12-01T07:17:54.350Z,100926.34
2022-12-01T07:20:22.519Z,100930.72
2022-12-01T07:22:50.603Z,100931.66
2022-12-01T07:25:18.784Z,100937.81
2022-12-01T07:27:49.265Z,100935.16
2022-12-01T07:30:17.718Z,100931.59
2022-12-01T07:32:46.207Z,100930.72
2022-12-01T07:35:14.435Z,100931.75
2022-12-01T07:37:42.778Z,100936.22
2022-12-01T07:40:12.334Z,100934.41
2022-12-01T07:42:42.622Z,100942.41
2022-12-01T07:45:12.310Z,100933.63
2022-12-01T07:47:40.371Z,100930.09
2022-12-01T07:50:09.396Z,100926.50
2022-12-01T07:52:37.666Z,100931.75
2022-12-01T07:55:06.493Z,100934.41
2022-12-01T07:57:34.670Z,100937.94
2022-12-01T08:00:03.392Z,100942.41
2022-12-01T08:02:36.469Z,100935.34
2022-12-01T08:05:04.902Z,100946.88
2022-12-01T08:07:33.128Z,100950.31
2022-12-01T08:10:01.307Z,100953.06
2022-12-01T08:12:29.579Z,100946.00
2022-12-01T08:14:57.687Z,100947.66
2022-12-01T08:17:25.856Z,100936.22
2022-12-01T08:19:55.362Z,100946.72
2022-12-01T08:22:23.434Z,100936.94
2022-12-01T08:24:51.647Z,100937.81
2022-12-01T08:27:19.806Z,100936.03
2022-12-01T08:29:48.243Z,100932.41
2022-12-01T08:32:17.983Z,100935.94
2022-12-01T08:34:51.827Z,100943.00
2022-12-01T08:37:22.765Z,100940.41
2022-12-01T08:39:51.290Z,100946.53
2022-12-01T08:42:19.471Z,100949.97
2022-12-01T08:44:47.635Z,100947.25
2022-12-01T08:47:18.751Z,100952.56
2022-12-01T08:49:47.249Z,100948.03
2022-12-01T08:52:18.354Z,100950.69
2022-12-01T08:54:48.052Z,100940.84
2022-12-01T08:57:16.394Z,100945.25
2022-12-01T08:59:45.144Z,100939.91
2022-12-01T09:02:16.693Z,100946.03
2022-12-01T09:04:45.503Z,100942.59
2022-12-01T09:07:15.163Z,100942.44
2022-12-01T09:09:45.264Z,100941.50
2022-12-01T09:12:15.767Z,100940.69
2022-12-01T09:14:48.166Z,100938.03
2022-12-01T09:17:17.388Z,100933.38
2022-12-01T09:19:45.976Z,100922.13
2022-12-01T09:22:14.555Z,100931.63
2022-12-01T09:24:42.947Z,100932.44
2022-12-01T09:27:11.686Z,100931.50
2022-12-01T09:29:41.223Z,100930.41
2022-12-01T09:32:09.481Z,100923.28
2022-12-01T09:34:37.803Z,100929.19
2022-12-01T09:37:06.971Z,100923.72
2022-12-01T09:39:35.170Z,100924.28
2022-12-01T09:42:09.212Z,100920.53
2022-12-01T09:44:44.107Z,100921.19
2022-12-01T09:47:19.270Z,100922.75
2022-12-01T09:49:54.443Z,100913.66
2022-12-01T09:52:25.195Z,100923.88
2022-12-01T09:54:56.137Z,100913.69
2022-12-01T09:57:31.199Z,100909.16
2022-12-01T10:00:08.309Z,100907.25
2022-12-01T10:02:41.148Z,100900.03
2022-12-01T10:05:16.021Z,100907.03
2022-12-01T10:07:48.606Z,100903.34
2022-12-01T10:10:21.797Z,100900.53
2022-12-01T10:12:50.004Z,100897.69
2022-12-01T10:15:36.320Z,100892.31
2022-12-01T10:18:17.402Z,100898.50
2022-12-01T10:20:53.514Z,100896.53
2022-12-01T10:23:45.291Z,100889.31
2022-12-01T10:26:17.201Z,100894.44
2022-12-01T10:29:06.372Z,100887.03
2022-12-01T10:31:49.350Z,100885.78
2022-12-01T10:34:20.086Z,100872.19
2022-12-01T10:36:48.524Z,100878.25
2022-12-01T10:39:20.760Z,100878.34
2022-12-01T10:41:50.119Z,100874.56
2022-12-01T10:44:22.422Z,100872.59
2022-12-01T10:46:56.077Z,100866.94
2022-12-01T10:49:36.744Z,100867.63
2022-12-01T10:52:04.892Z,100864.81
2022-12-01T10:54:36.291Z,100863.69
2022-12-01T10:57:05.847Z,100869.75
2022-12-01T10:59:39.083Z,100870.38
2022-12-01T11:02:18.441Z,100863.31
2022-12-01T11:04:52.944Z,100859.50
2022-12-01T11:07:23.703Z,100863.59
2022-12-01T11:10:09.346Z,100859.66
2022-12-01T11:12:37.618Z,100857.75
2022-12-01T11:15:07.163Z,100855.84
2022-12-01T11:17:40.645Z,100837.94
2022-12-01T11:20:34.168Z,100844.75
2022-12-01T11:23:32.272Z,100841.84
2022-12-01T11:26:04.955Z,100841.41
2022-12-01T11:28:35.259Z,100840.38
2022-12-01T11:31:06.673Z,100834.88
2022-12-01T11:33:46.465Z,100838.31
2022-12-01T11:36:24.268Z,100814.19
2022-12-01T11:38:57.652Z,100834.09
2022-12-01T11:41:30.337Z,100826.06
2022-12-01T11:44:01.862Z,100828.66
2022-12-01T11:46:35.605Z,100834.88
2022-12-01T11:49:05.298Z,100820.72
2022-12-01T11:51:37.687Z,100821.41
2022-12-01T11:54:13.765Z,100821.69
2022-12-01T11:56:45.427Z,100825.91
2022-12-01T11:59:16.823Z,100832.63
2022-12-01T12:02:14.906Z,100825.91
2022-12-01T12:05:15.983Z,100823.13
2022-12-01T12:07:55.498Z,100816.28
2022-12-01T12:10:35.435Z,100819.69
2022-12-01T12:13:27.489Z,100811.38
2022-12-01T12:16:06.022Z,100814.81
2022-12-01T12:18:49.408Z,100816.38
2022-12-01T12:21:30.190Z,100815.31
2022-12-01T12:24:35.865Z,100813.69
2022-12-01T12:27:12.360Z,100797.91
2022-12-01T12:29:54.448Z,100807.28
2022-12-01T12:32:52.328Z,100815.97
2022-12-01T12:35:32.240Z,100810.47
2022-12-01T12:38:10.142Z,100807.41
2022-12-01T12:40:43.621Z,100803.78
2022-12-01T12:43:24.023Z,100812.31
2022-12-01T12:46:02.155Z,100813.84
2022-12-01T12:49:03.959Z,100812.03
2022-12-01T12:51:36.999Z,100804.00
2022-12-01T12:54:16.511Z,100801.91
2022-12-01T12:56:49.677Z,100803.44
2022-12-01T12:59:20.701Z,100805.00
2022-12-01T13:01:56.832Z,100805.75
2022-12-01T13:04:33.430Z,100811.88
2022-12-01T13:07:04.645Z,100808.16
2022-12-01T13:09:37.302Z,100803.38
2022-12-01T13:12:10.133Z,100805.78
2022-12-01T13:14:42.175Z,100796.69
2022-12-01T13:17:20.151Z,100791.22
2022-12-01T13:19:49.190Z,100803.47
2022-12-01T13:22:21.632Z,100800.03
2022-12-01T13:24:51.836Z,100798.09
2022-12-01T13:27:23.799Z,100803.28
2022-12-01T13:29:54.425Z,100804.25
2022-12-01T13:32:38.026Z,100797.94
2022-12-01T13:35:08.240Z,100798.09
2022-12-01T13:37:39.048Z,100804.31
2022-12-01T13:40:23.095Z,100800.03
2022-12-01T13:42:58.499Z,100803.66
2022-12-01T13:45:26.782Z,100800.03
2022-12-01T13:47:57.012Z,100801.94
2022-12-01T13:51:01.740Z,100806.25
2022-12-01T13:53:32.846Z,100802.59
2022-12-01T13:56:27.619Z,100797.25
2022-12-01T13:58:56.162Z,100791.88
2022-12-01T14:01:49.798Z,100795.44
2022-12-01T14:04:29.532Z,100798.91
2022-12-01T14:07:21.057Z,100796.13
2022-12-01T14:09:51.673Z,100793.59
2022-12-01T14:12:23.457Z,100802.59
2022-12-01T14:14:57.009Z,100790.28
2022-12-01T14:17:29.583Z,100792.00
2022-12-01T14:20:08.358Z,100795.63
2022-12-01T14:22:40.200Z,100785.00
2022-12-01T14:25:25.674Z,100787.78
2022-12-01T14:27:57.745Z,100793.31
2022-12-01T14:30:58.998Z,100788.84
2022-12-01T14:34:00.052Z,100788.16
2022-12-01T14:36:39.235Z,100788.47
2022-12-01T14:39:16.061Z,100788.53
2022-12-01T14:41:48.105Z,100791.22
2022-12-01T14:44:24.237Z,100797.53
2022-12-01T14:46:57.807Z,100789.50
2022-12-01T14:49:30.758Z,100791.03
2022-12-01T14:52:05.641Z,100794.84
2022-12-01T14:54:40.346Z,100789.69
2022-12-01T14:57:13.662Z,100794.47
2022-12-01T14:59:46.234Z,100795.41
2022-12-01T15:02:15.063Z,100793.78
2022-12-01T15:05:08.423Z,100801.06
2022-12-01T15:07:40.555Z,100802.19
2022-12-01T15:10:17.801Z,100802.28
2022-12-01T15:12:46.290Z,100795.19
2022-12-01T15:15:23.981Z,100796.25
2022-12-01T15:17:55.655Z,100802.66
2022-12-01T15:20:32.979Z,100800.94
2022-12-01T15:23:03.598Z,100796.59
2022-12-01T15:25:35.641Z,100799.47
2022-12-01T15:28:12.318Z,100803.22
2022-12-01T15:30:45.142Z,100798.00
2022-12-01T15:33:26.731Z,100794.56
2022-12-01T15:35:56.612Z,100800.97
2022-12-01T15:38:27.936Z,100798.22
2022-12-01T15:43:56.092Z,100790.28
2022-12-01T15:46:30.503Z,100789.41
2022-12-01T15:49:09.277Z,100801.34
2022-12-01T15:51:37.534Z,100801.53
2022-12-01T15:54:05.935Z,100811.38
2022-12-01T15:56:37.432Z,100807.16
2022-12-01T15:59:09.886Z,100798.34
2022-12-01T16:01:41.968Z,100802.94
2022-12-01T16:04:19.482Z,100801.00
2022-12-01T16:06:56.692Z,100815.53
2022-12-01T16:09:29.735Z,100809.31
2022-12-01T16:12:21.040Z,100812.75
2022-12-01T16:14:51.962Z,100809.22
2022-12-01T16:17:22.665Z,100808.66
2022-12-01T16:20:18.696Z,100809.50
2022-12-01T16:22:48.658Z,100809.50
2022-12-01T16:25:19.378Z,100805.38
2022-12-01T16:27:53.154Z,100805.38
2022-12-01T16:30:23.464Z,100803.84
2022-12-01T16:33:01.165Z,100806.56
2022-12-01T16:35:31.515Z,100812.00
2022-12-01T16:37:59.956Z,100807.63
2022-12-01T16:40:28.185Z,100806.94
2022-12-01T16:42:56.482Z,100811.44
2022-12-01T16:45:26.804Z,100809.72
2022-12-01T16:47:56.327Z,100817.78
2022-12-01T16:50:24.689Z,100805.38
2022-12-01T16:52:52.719Z,100813.50
2022-12-01T16:55:31.189Z,100807.72
2022-12-01T16:57:59.238Z,100806.94
2022-12-01T17:00:27.718Z,100813.34
2022-12-01T17:02:57.965Z,100815.22
2022-12-01T17:05:26.426Z,100811.44
2022-12-01T17:07:54.847Z,100812.28
2022-12-01T17:10:24.087Z,100816.06
2022-12-01T17:12:52.213Z,100818.16
2022-12-01T17:15:20.380Z,100822.22
2022-12-01T17:17:48.603Z,100817.03
2022-12-01T17:20:18.515Z,100818.16
2022-12-01T17:22:46.527Z,100824.56
2022-12-01T17:25:14.716Z,100820.94
2022-12-01T17:27:43.987Z,100821.09
2022-12-01T17:30:13.298Z,100826.03
2022-12-01T17:32:41.331Z,100823.94
2022-12-01T17:35:10.373Z,100823.34
2022-12-01T17:37:40.140Z,100822.66
2022-12-01T17:40:13.816Z,100826.88
2022-12-01T17:42:48.579Z,100825.22
2022-12-01T17:45:19.228Z,100828.94
2022-12-01T17:47:47.373Z,100825.41
2022-12-01T17:50:15.859Z,100827.44
2022-12-01T17:52:45.367Z,100825.72
2022-12-01T17:55:13.455Z,100825.03
2022-12-01T17:57:41.525Z,100825.81
2022-12-01T18:00:11.044Z,100828.91
2022-12-01T18:02:39.230Z,100829.50
2022-12-01T18:05:08.246Z,100829.84
2022-12-01T18:07:36.407Z,100837.41
2022-12-01T18:10:06.802Z,100835.88
2022-12-01T18:12:34.828Z,100840.44
2022-12-01T18:15:02.993Z,100836.06
2022-12-01T18:17:31.962Z,100836.19
2022-12-01T18:20:00.255Z,100831.72
2022-12-01T18:22:28.486Z,100834.47
2022-12-01T18:24:57.649Z,100839.81
2022-12-01T18:27:27.348Z,100838.97
2022-12-01T18:29:58.506Z,100833.72
2022-12-01T18:32:26.672Z,100838.19
2022-12-01T18:34:54.876Z,100834.56
2022-12-01T18:37:22.938Z,100837.50
2022-12-01T18:39:51.940Z,100836.56
2022-12-01T18:42:20.011Z,100840.19
2022-12-01T18:44:49.794Z,100846.47
2022-12-01T18:47:18.186Z,100837.66
2022-12-01T18:49:46.298Z,100836.88
2022-12-01T18:52:14.266Z,100836.88
2022-12-01T18:54:42.495Z,100836.88
2022-12-01T18:57:11.898Z,100839.53
2022-12-01T18:59:40.079Z,100838.50
2022-12-01T19:02:11.530Z,100837.50
2022-12-01T19:04:39.631Z,100839.63
2022-12-01T19:07:07.699Z,100838.94
2022-12-01T19:09:35.796Z,100831.88
2022-12-01T19:12:04.065Z,100840.81
2022-12-01T19:14:32.217Z,100839.19
2022-12-01T19:17:00.611Z,100848.06
2022-12-01T19:19:35.746Z,100847.19
2022-12-01T19:22:05.879Z,100849.94
2022-12-01T19:24:34.128Z,100850.91
2022-12-01T19:27:02.295Z,100855.38
2022-12-01T19:29:30.519Z,100849.00
2022-12-01T19:31:58.864Z,100849.19
2022-12-01T19:34:27.022Z,100850.97
2022-12-01T19:36:56.864Z,100844.78
2022-12-01T19:39:25.252Z,100842.19
2022-12-01T19:41:53.732Z,100842.72
2022-12-01T19:44:23.307Z,100841.94
2022-12-01T19:46:51.646Z,100848.41
2022-12-01T19:49:19.857Z,100844.06
2022-12-01T19:51:48.291Z,100845.28
2022-12-01T19:54:19.547Z,100848.00
2022-12-01T19:56:47.662Z,100858.28
2022-12-01T19:59:16.093Z,100858.28
2022-12-01T20:01:44.275Z,100862.84
2022-12-01T20:04:12.720Z,100857.47
2022-12-01T20:06:40.854Z,100861.19
2022-12-01T20:09:09.712Z,100855.75
2022-12-01T20:11:39.369Z,100857.66
2022-12-01T20:14:09.286Z,100857.28
2022-12-01T20:16:37.981Z,100861.88
2022-12-01T20:19:06.803Z,100861.94
2022-12-01T20:21:36.655Z,100864.72
2022-12-01T20:24:07.577Z,100862.19
2022-12-01T20:26:37.481Z,100862.34
2022-12-01T20:29:10.849Z,100851.84
2022-12-01T20:31:39.307Z,100860.44
2022-12-01T20:34:10.688Z,100860.13
2022-12-01T20:36:39.141Z,100852.22
2022-12-01T20:39:08.713Z,100856.59
2022-12-01T20:41:37.176Z,100865.47
2022-12-01T20:44:07.455Z,100864.63
2022-12-01T20:46:40.950Z,100869.97
2022-12-01T20:49:09.538Z,100878.91
2022-12-01T20:51:37.682Z,100881.69
2022-12-01T20:56:55.834Z,100876.56
2022-12-01T20:59:24.100Z,100880.97
2022-12-01T21:01:53.719Z,100879.31
2022-12-01T21:04:22.074Z,100882.94
2022-12-01T21:06:50.967Z,100884.75
2022-12-01T21:09:19.115Z,100888.28
2022-12-01T21:12:06.384Z,100886.88
2022-12-01T21:14:38.225Z,100882.56
2022-12-01T21:17:16.353Z,100894.19
2022-12-01T21:19:50.218Z,100894.09
2022-12-01T21:22:19.269Z,100885.91
2022-12-01T21:24:51.935Z,100894.88
2022-12-01T21:27:20.266Z,100892.28
2022-12-01T21:29:50.012Z,100890.47
2022-12-01T21:32:24.472Z,100892.28
2022-12-01T21:34:56.495Z,100893.81
2022-12-01T21:37:26.223Z,100901.16
2022-12-01T21:39:57.256Z,100904.78
2022-12-01T21:42:29.178Z,100898.66
2022-12-01T21:44:58.114Z,100899.63
2022-12-01T21:47:30.098Z,100894.34
2022-12-01T21:50:00.742Z,100891.81
2022-12-01T21:52:32.860Z,100893.56
2022-12-01T21:55:03.504Z,100890.97
2022-12-01T21:57:42.854Z,100900.09
2022-12-01T22:00:27.251Z,100904.63
2022-12-01T22:03:15.805Z,100908.16
2022-12-01T22:06:01.114Z,100901.97
2022-12-01T22:08:37.162Z,100908.25
2022-12-01T22:11:10.998Z,100904.72
2022-12-01T22:13:42.915Z,100902.09
2022-12-01T22:16:15.291Z,100905.63
2022-12-01T22:18:48.258Z,100898.66
2022-12-01T22:21:42.573Z,100902.28
2022-12-01T22:24:25.797Z,100901.41
2022-12-01T22:27:27.283Z,100897.03
2022-12-01T22:29:59.585Z,100896.16
2022-12-01T22:32:40.355Z,100892.72
2022-12-01T22:35:23.720Z,100886.44
2022-12-01T22:37:53.613Z,100884.84
2022-12-01T22:40:40.681Z,100878.88
2022-12-01T22:43:23.874Z,100885.25
2022-12-01T22:46:10.792Z,100879.97
2022-12-01T22:48:40.733Z,100883.44
2022-12-01T22:51:24.353Z,100874.50
2022-12-01T22:53:58.886Z,100880.69
2022-12-01T22:56:40.445Z,100882.41
2022-12-01T22:59:17.203Z,100872.78
2022-12-01T23:01:50.202Z,100880.78
2022-12-01T23:04:26.366Z,100881.69
2022-12-01T23:07:04.671Z,100879.03
2022-12-01T23:09:37.075Z,100879.97
2022-12-01T23:12:33.427Z,100886.16
2022-12-01T23:15:17.632Z,100887.19
2022-12-01T23:17:45.751Z,100881.84
2022-12-01T23:20:27.836Z,100880.13
2022-12-01T23:22:59.723Z,100880.13
2022-12-01T23:25:28.707Z,100883.75
2022-12-01T23:28:01.230Z,100877.53
2022-12-01T23:30:29.395Z,100882.97
2022-12-01T23:33:04.726Z,100886.63
2022-12-01T23:35:51.954Z,100886.56
2022-12-01T23:38:24.014Z,100887.50
2022-12-01T23:40:58.149Z,100887.50
2022-12-01T23:43:28.292Z,100889.28
2022-12-01T23:46:04.088Z,100882.19
2022-12-01T23:48:35.044Z,100887.50
2022-12-01T23:51:03.605Z,100892.97
2022-12-01T23:53:34.135Z,100899.16
2022-12-01T23:56:07.245Z,100889.69
2022-12-01T23:58:36.188Z,100899.34
